To NAV CANADA Home Page Login to a new session Search on AWWS site Feedback and Comments Disclaimer Vers la page française équivalente Tips FAQ What's new on the site To the Forecasts and Observations / NOTAM section To "File a Flight Plan" website Publications and other links Update of the User's profile FIC Telephone Numbers My Weather Data Folder Route Weather Data Regional Weather Data Local Weather Data To the Forecasts and Observations / NOTAM section
Request Generated 04/27/2015 at 07:05:16 UTC . Weather information available at that time is displayed.

METAR/TAF

ABBOTSFORD/BC    

METAR CYXX 270700Z 34005KT 10SM OVC040 10/07 A3025 RMK SC8 INTMT -RA
SLP244=
METAR CYXX 270600Z 33007KT 10SM -RA BKN040 OVC080 11/07 A3024 RMK
SC6AS2 SLP242=
METAR CYXX 270500Z CCA 29005KT 10SM -RA SCT050 OVC090 11/07 A3024 RMK
SC4AS4 SLP242=
METAR CYXX 270500Z 29005KT 10SM SCT070 OVC090 11/07 A3024 RMK AC3AS5
SLP242=

TAF CYXX 270538Z 2706/2806 29005KT P6SM SCT030 OVC090 TEMPO 2706/2710
P6SM -RA BKN030
BECMG 2706/2708 VRB03KT
FM271000 03006KT P6SM -RA SCT020 OVC030 TEMPO 2710/2721 5SM -RA
BR OVC020
FM272100 04008KT P6SM SCT040 TEMPO 2721/2802 BKN040
FM280200 06008KT P6SM FEW060
RMK NXT FCST BY 271200Z=
Your time UTC time
Weather data provided by Environment Canada and NAV CANADA